• Join FlightAware (Why Join?)
  • Login
  • US Flag 
04:26PM EDT


 

Airport Tracker/Info


-or-


 

Live Flight TrackerFlight Track Log ✈ AWE3417 ✈ 24-Apr-2013 ✈ KMHT - KDCA

Flight Track Log - Related Links

Times and Time Zones

All times are in EDT time to prevent confusion due to time zone crossing. See the AWE3417 flight status page for this flight to view local times or setup timezone preferences in your user account.

Time Position Orientation Groundspeed Altitude Reporting Facility
EDT Latitude Longitude Course Direction KTS MPH feet Rate Location/Type
05:53PM 42.9000 -71.4667 180° South 217 250 3,300  Level KA90
05:54PM 43.0530 -71.0911 65° Northeast  Level FlightAware Approximate
05:54PM 42.9842 -71.5006 344° North 308 354 6,600  Level Boston Center
05:55PM 43.0750 -70.9708 132° Southeast  Level FlightAware Approximate
05:55PM 43.0439 -71.4175 45° Northeast 269 310 9,900  Level Boston Center
05:56PM 43.0018 -70.8851 144° Southeast  Level FlightAware Approximate
05:56PM 43.0511 -71.2864 86° East 318 366 12,200  Level Boston Center
05:57PM 42.9147 -70.9048 202° Southwest  Level FlightAware Approximate
05:57PM 43.0581 -71.1728 85° East 356 410 14,500  Level Boston Center
05:58PM 42.8243 -70.9500 180° South  Level FlightAware Approximate
05:58PM 43.0667 -70.9992 86° East 375 432 18,600  Level Boston Center
06:00PM 42.9922 -70.8986 135° Southeast 339 390 21,500 2,160 Climbing Boston Center
06:01PM 42.9008 -70.9267 193° South 275 316 23,900 2,160 Climbing Boston Center
06:02PM 42.7683 -70.9892 199° South 310 357 26,700 1,860 Climbing Boston Center
06:03PM 42.6731 -71.0367 200° South 344 396 28,000 600 Climbing Boston Center
06:04PM 42.5758 -71.0839 200° South 364 419 28,000  Level Boston Center
06:05PM 42.4783 -71.1339 201° Southwest 369 425 28,000  Level Boston Center
06:06PM 42.4042 -71.2197 221° Southwest 361 415 28,000  Level Boston Center
06:07PM 42.3658 -71.3469 248° West 340 391 28,000  Level Boston Center
06:08PM 42.3275 -71.4714 247° West 351 404 28,000  Level Boston Center
06:09PM 42.2825 -71.5953 244° Southwest 362 417 28,000  Level Boston Center
06:10PM 42.2458 -71.7194 248° West 362 417 28,000  Level Boston Center
06:11PM 42.2069 -71.8403 247° West 362 417 28,000  Level Boston Center
06:12PM 42.1681 -71.9639 247° West 362 417 28,000  Level Boston Center
06:13PM 42.1228 -72.1153 248° West 362 417 28,000 -120 Level Boston Center
06:14PM 42.0833 -72.2358 246° West 357 411 27,800 -600 Descending Boston Center
06:15PM 42.0461 -72.3561 247° West 357 411 26,900 -900 Descending Boston Center
06:16PM 42.0086 -72.4736 247° West 357 411 26,000 -480 Descending Boston Center
06:17PM 41.9731 -72.5908 248° West 357 411 26,000  Level Boston Center
06:18PM 41.9311 -72.6997 243° Southwest 345 397 26,000  Level Boston Center
06:19PM 41.8789 -72.7719 226° Southwest 340 391 26,000  Level Boston Center
06:20PM 41.7972 -72.8856 226° Southwest 340 391 26,000  Level Boston Center
06:21PM 41.7322 -72.9769 226° Southwest 345 397 26,000  Level Boston Center
06:22PM 41.6672 -73.0681 226° Southwest 345 397 26,000  Level Boston Center
06:23PM 41.5936 -73.1617 224° Southwest 345 397 26,000  Level Boston Center
06:24PM 41.5389 -73.2361 226° Southwest 345 397 26,000  Level Boston Center
06:27PM 41.3769 -73.4531 225° Southwest 329 379 26,000  Level New York Center
06:28PM 41.3125 -73.5417 226° Southwest 334 384 26,000  Level New York Center
06:29PM 41.2517 -73.6383 230° Southwest 341 392 26,000  Level New York Center
06:30PM 41.1911 -73.7378 231° Southwest 348 400 26,000  Level New York Center
06:31PM 41.1322 -73.8344 231° Southwest 348 400 26,000  Level New York Center
06:32PM 41.0778 -73.9283 232° Southwest 348 400 26,000  Level New York Center
06:33PM 41.0211 -74.0247 232° Southwest 342 394 26,000  Level New York Center
06:34PM 40.9642 -74.1181 231° Southwest 337 388 26,000  Level New York Center
06:35PM 40.9031 -74.2111 229° Southwest 337 388 26,000  Level New York Center
06:36PM 40.8483 -74.3044 232° Southwest 337 388 26,000  Level New York Center
06:37PM 40.7892 -74.4000 231° Southwest 337 388 26,000  Level New York Center
06:38PM 40.7322 -74.4928 231° Southwest 337 388 26,000  Level New York Center
06:39PM 40.6750 -74.5881 232° Southwest 337 388 26,000  Level New York Center
06:40PM 40.6178 -74.6778 230° Southwest 337 388 26,000  Level New York Center
06:41PM 40.5625 -74.7731 233° Southwest 337 388 26,000  Level New York Center
06:42PM 40.5014 -74.8569 226° Southwest 332 382 26,000  Level New York Center
06:43PM 40.4419 -74.9433 228° Southwest 327 376 26,000 -60 Level New York Center
06:44PM 40.3806 -75.0294 227° Southwest 327 376 25,900 -540 Descending New York Center
06:45PM 40.3192 -75.1128 226° Southwest 327 376 25,000 -1,020 Descending New York Center
06:46PM 40.2617 -75.1989 229° Southwest 327 376 23,900 -1,140 Descending New York Center
06:47PM 40.2047 -75.2769 226° Southwest 321 369 22,800 -960 Descending New York Center
06:48PM 40.1472 -75.3600 228° Southwest 316 364 22,000 -420 Descending New York Center
06:49PM 40.0919 -75.4406 228° Southwest 310 357 22,000  Level New York Center
06:50PM 40.0386 -75.5239 230° Southwest 310 357 22,000  Level New York Center
06:51PM 39.9853 -75.6069 230° Southwest 310 357 22,000  Level New York Center
06:52PM 39.9339 -75.6900 231° Southwest 310 357 22,000  Level New York Center
06:53PM 39.8803 -75.7728 230° Southwest 304 350 22,000  Level New York Center
06:54PM 39.8269 -75.8528 229° Southwest 299 344 22,000 -360 Level New York Center
06:55PM 39.7733 -75.9325 229° Southwest 299 344 21,400 -1,200 Descending New York Center
06:56PM 39.7172 -76.0203 230° Southwest 294 338 19,600 -1,680 Descending New York Center
06:57PM 39.6661 -76.0919 227° Southwest 289 333 18,100 -1,500 Descending New York Center
06:58PM 39.6211 -76.1642 231° Southwest 284 327 16,600 -1,560 Descending New York Center
06:59PM 39.5719 -76.2383 229° Southwest 266 306 15,100 -1,500 Descending New York Center
07:00PM 39.5000 -76.3333 226° Southwest 245 282 13,000 -1,320 Descending Potomac TRACON
07:01PM 39.4667 -76.4000 237° Southwest 239 275 12,000 -780 Descending Potomac TRACON
07:02PM 39.4000 -76.4667 218° Southwest 244 281 11,500 -780 Descending Potomac TRACON
07:03PM 39.3500 -76.5000 207° Southwest 241 277 10,500 -780 Descending Potomac TRACON
07:04PM 39.3000 -76.5500 218° Southwest 239 275 10,000 -300 Descending Potomac TRACON
07:05PM 39.2333 -76.6000 210° Southwest 240 276 10,000  Level Potomac TRACON
07:06PM 39.1833 -76.6500 218° Southwest 242 278 10,000  Level Potomac TRACON
07:07PM 39.1333 -76.7000 218° Southwest 240 276 10,000  Level Potomac TRACON
07:08PM 39.0833 -76.7667 226° Southwest 240 276 10,000 -660 Level Potomac TRACON
07:09PM 39.0667 -76.8333 252° West 238 274 8,700 -1,800 Descending Potomac TRACON
07:10PM 39.0500 -76.9333 258° West 243 280 6,500 -1,500 Descending Potomac TRACON
07:11PM 39.0333 -77.0167 256° West 236 272 5,700 -1,500 Descending Potomac TRACON
07:12PM 39.0333 -77.1000 270° West 239 275 3,600 -1,380 Descending Potomac TRACON
07:13PM 39.0000 -77.1667 237° Southwest 214 246 3,000 -300 Descending Potomac TRACON
07:14PM 38.9667 -77.1833 201° Southwest 167 192 3,000 -180 Level Potomac TRACON
07:15PM 38.9500 -77.1333 113° Southeast 161 185 2,700 -360 Descending Potomac TRACON